Time;durP1;ratioP1;P1;durP2;ratioP2;P2;SDS_P1;SDS_P2;PMS_P1;PMS_P2;Temp;Humidity;BMP_temperature;BMP_pressure;BME280_temperature;BME280_humidity;BME280_pressure;Samples;Min_cycle;Max_cycle;Signal;HPM_P1;HPM_P2
2023/04/16 00:00:15;;;;;;;3.50;1.27;;;;;;;;;;1047963;28;20405;-21
2023/04/16 00:00:47;;;;;;;8.40;1.25;;;;;;;;;;1048133;28;20027;-22
2023/04/16 00:01:17;;;;;;;9.68;1.75;;;;;;;;;;1048185;28;20400;-23
2023/04/16 00:01:48;;;;;;;2.25;1.13;;;;;;;;;;1048080;28;20103;-21
2023/04/16 00:02:18;;;;;;;7.50;1.52;;;;;;;;;;1048164;28;20032;-21
2023/04/16 00:02:49;;;;;;;14.07;1.70;;;;;;;;;;1048137;28;20025;-19
2023/04/16 00:03:19;;;;;;;4.40;1.50;;;;;;;;;;1048093;28;20028;-21
2023/04/16 00:03:50;;;;;;;15.52;1.90;;;;;;;;;;1048114;28;20031;-23
2023/04/16 00:04:20;;;;;;;2.45;0.82;;;;;;;;;;1048251;28;20028;-23
2023/04/16 00:04:50;;;;;;;9.73;1.75;;;;;;;;;;1048120;28;20227;-23
2023/04/16 00:05:21;;;;;;;5.18;1.30;;;;;;;;;;1048162;28;20028;-23
2023/04/16 00:05:54;;;;;;;0.77;0.65;;;;;;;;;;1048019;28;20506;-20
2023/04/16 00:06:25;;;;;;;1.65;1.48;;;;;;;;;;1047226;28;20020;-23
2023/04/16 00:06:55;;;;;;;0.32;0.30;;;;;;;;;;1048154;28;20088;-23
2023/04/16 00:07:25;;;;;;;0.98;0.75;;;;;;;;;;1048198;28;20566;-22
2023/04/16 00:07:56;;;;;;;4.70;2.08;;;;;;;;;;1047059;28;20020;-22
2023/04/16 00:08:26;;;;;;;2.40;1.63;;;;;;;;;;1048145;28;20472;-23
2023/04/16 00:08:57;;;;;;;1.38;1.17;;;;;;;;;;1048235;28;20062;-22
2023/04/16 00:09:27;;;;;;;11.25;1.05;;;;;;;;;;1048129;28;20046;-23
2023/04/16 00:09:58;;;;;;;3.50;2.55;;;;;;;;;;1048090;28;20021;-21
2023/04/16 00:10:29;;;;;;;3.45;1.02;;;;;;;;;;1048250;28;20119;-22
2023/04/16 00:10:59;;;;;;;2.17;1.50;;;;;;;;;;1048039;28;20013;-23
2023/04/16 00:11:29;;;;;;;3.92;1.65;;;;;;;;;;1048100;28;20029;-23
2023/04/16 00:12:00;;;;;;;2.70;0.77;;;;;;;;;;1047850;28;20024;-24
2023/04/16 00:12:31;;;;;;;4.72;1.58;;;;;;;;;;1048199;28;20031;-23
2023/04/16 00:13:01;;;;;;;3.22;1.00;;;;;;;;;;1048200;28;20519;-21
2023/04/16 00:13:32;;;;;;;4.43;2.00;;;;;;;;;;1048213;28;20028;-18
2023/04/16 00:14:02;;;;;;;1.10;0.70;;;;;;;;;;1047198;28;20077;-20
2023/04/16 00:14:32;;;;;;;1.73;0.85;;;;;;;;;;1048064;28;20029;-21
2023/04/16 00:15:03;;;;;;;0.85;0.65;;;;;;;;;;1048169;28;20135;-21
2023/04/16 00:15:33;;;;;;;1.45;0.77;;;;;;;;;;1046903;28;20522;-22
2023/04/16 00:16:04;;;;;;;2.35;1.48;;;;;;;;;;1049259;28;20020;-21
2023/04/16 00:16:35;;;;;;;1.08;0.73;;;;;;;;;;1048053;28;20031;-22
2023/04/16 00:17:05;;;;;;;6.18;1.00;;;;;;;;;;1048171;28;20365;-23
2023/04/16 00:17:35;;;;;;;1.40;0.85;;;;;;;;;;1043472;28;20028;-23
2023/04/16 00:18:06;;;;;;;7.53;1.40;;;;;;;;;;1041850;28;20025;-22
2023/04/16 00:18:36;;;;;;;3.00;1.20;;;;;;;;;;1041289;28;20366;-23
2023/04/16 00:19:07;;;;;;;1.73;1.60;;;;;;;;;;1041495;28;20366;-22
2023/04/16 00:19:37;;;;;;;5.45;2.20;;;;;;;;;;1044032;28;20392;-23
2023/04/16 00:20:08;;;;;;;2.80;1.30;;;;;;;;;;1048833;28;20078;-21
2023/04/16 00:20:38;;;;;;;2.08;0.73;;;;;;;;;;1047962;28;20033;-21
2023/04/16 00:21:09;;;;;;;3.20;1.10;;;;;;;;;;1048248;28;20020;-22
2023/04/16 00:21:39;;;;;;;6.20;1.67;;;;;;;;;;1047897;28;20120;-22
2023/04/16 00:22:10;;;;;;;1.27;0.63;;;;;;;;;;1048275;28;20024;-23
2023/04/16 00:22:40;;;;;;;1.35;0.95;;;;;;;;;;1047935;28;20057;-20
2023/04/16 00:23:11;;;;;;;1.85;1.02;;;;;;;;;;1048225;28;20020;-21
2023/04/16 00:23:41;;;;;;;2.33;1.58;;;;;;;;;;1048047;28;20074;-21
2023/04/16 00:24:11;;;;;;;1.77;1.02;;;;;;;;;;1048278;28;20027;-22
2023/04/16 00:24:42;;;;;;;6.15;1.20;;;;;;;;;;1047996;28;20019;-22
2023/04/16 00:25:12;;;;;;;7.05;2.03;;;;;;;;;;1048186;28;20410;-23
2023/04/16 00:25:43;;;;;;;4.18;2.85;;;;;;;;;;1046927;28;20032;-21
2023/04/16 00:26:13;;;;;;;9.27;1.77;;;;;;;;;;1048160;28;20475;-21
2023/04/16 00:26:45;;;;;;;8.98;1.60;;;;;;;;;;1047885;28;20009;-21
2023/04/16 00:27:15;;;;;;;2.55;1.77;;;;;;;;;;1047204;28;20024;-22
2023/04/16 00:27:46;;;;;;;21.92;1.38;;;;;;;;;;1048095;28;20074;-22
2023/04/16 00:28:16;;;;;;;5.72;2.25;;;;;;;;;;1047147;28;20032;-22
2023/04/16 00:28:47;;;;;;;2.45;0.85;;;;;;;;;;1048026;28;20552;-21
2023/04/16 00:29:17;;;;;;;0.82;0.82;;;;;;;;;;1048160;28;20486;-22
2023/04/16 00:29:48;;;;;;;2.75;1.80;;;;;;;;;;1048030;28;20055;-23
2023/04/16 00:30:18;;;;;;;2.38;1.38;;;;;;;;;;1048220;28;20060;-23
2023/04/16 00:30:48;;;;;;;2.20;0.98;;;;;;;;;;1048058;28;20031;-21
2023/04/16 00:31:39;;;;;;;6.47;1.65;;;;;;;;;;1047964;28;20024;-24
2023/04/16 00:32:09;;;;;;;7.47;1.65;;;;;;;;;;1047612;28;20086;-23
2023/04/16 00:32:40;;;;;;;1.75;1.05;;;;;;;;;;1047974;28;20078;-23
2023/04/16 00:33:10;;;;;;;6.72;3.38;;;;;;;;;;1048215;28;20037;-23
2023/04/16 00:33:41;;;;;;;1.20;0.80;;;;;;;;;;1047932;28;20024;-21
2023/04/16 00:34:11;;;;;;;2.40;1.48;;;;;;;;;;1048141;28;20016;-21
2023/04/16 00:34:42;;;;;;;1.95;0.77;;;;;;;;;;1047981;28;20020;-20
2023/04/16 00:35:12;;;;;;;1.98;1.67;;;;;;;;;;1048039;28;20051;-23
2023/04/16 00:35:46;;;;;;;5.13;1.15;;;;;;;;;;1047899;28;20099;-18
2023/04/16 00:36:17;;;;;;;2.03;1.75;;;;;;;;;;1048057;28;20024;-23
2023/04/16 00:36:47;;;;;;;1.98;0.73;;;;;;;;;;1048052;28;20114;-23
2023/04/16 00:37:18;;;;;;;3.50;0.85;;;;;;;;;;1048050;28;20431;-20
2023/04/16 00:37:48;;;;;;;1.50;0.98;;;;;;;;;;1047981;28;20094;-23
2023/04/16 00:38:19;;;;;;;7.07;1.83;;;;;;;;;;1048233;28;20111;-23
2023/04/16 00:38:49;;;;;;;4.88;1.27;;;;;;;;;;1048041;28;20021;-18
2023/04/16 00:39:20;;;;;;;1.88;1.15;;;;;;;;;;1048005;28;20027;-23
2023/04/16 00:39:50;;;;;;;21.70;1.70;;;;;;;;;;1048122;28;20037;-22
2023/04/16 00:40:21;;;;;;;2.20;1.20;;;;;;;;;;1048138;28;20035;-21
2023/04/16 00:40:51;;;;;;;4.22;0.90;;;;;;;;;;1048010;28;20057;-22
2023/04/16 00:41:22;;;;;;;12.63;0.68;;;;;;;;;;1048019;28;20517;-23
2023/04/16 00:41:53;;;;;;;4.70;1.80;;;;;;;;;;1047449;28;20623;-23
2023/04/16 00:42:23;;;;;;;10.48;1.40;;;;;;;;;;1048155;28;20379;-22
2023/04/16 00:42:53;;;;;;;2.03;1.83;;;;;;;;;;1048082;28;20024;-21
2023/04/16 00:43:25;;;;;;;4.55;1.27;;;;;;;;;;1047883;28;20114;-23
2023/04/16 00:43:55;;;;;;;4.25;1.45;;;;;;;;;;1048060;28;20041;-23
2023/04/16 00:44:25;;;;;;;2.13;0.82;;;;;;;;;;1048107;28;20029;-23
2023/04/16 00:44:56;;;;;;;6.05;1.38;;;;;;;;;;1048069;28;20107;-21
2023/04/16 00:45:26;;;;;;;2.50;1.33;;;;;;;;;;1048062;28;20119;-22
2023/04/16 00:45:57;;;;;;;7.63;2.03;;;;;;;;;;1046862;28;20023;-22
2023/04/16 00:46:28;;;;;;;2.35;1.20;;;;;;;;;;1048026;28;20028;-23
2023/04/16 00:46:58;;;;;;;4.63;1.58;;;;;;;;;;1048173;28;20439;-21
2023/04/16 00:47:29;;;;;;;2.97;2.08;;;;;;;;;;1046873;28;20020;-23
2023/04/16 00:48:00;;;;;;;1.25;0.63;;;;;;;;;;1048091;28;20380;-23
2023/04/16 00:48:31;;;;;;;3.75;1.92;;;;;;;;;;1047993;28;20028;-22
2023/04/16 00:49:02;;;;;;;6.80;1.42;;;;;;;;;;1048010;28;20029;-21
2023/04/16 00:49:33;;;;;;;2.08;1.48;;;;;;;;;;1043450;28;20492;-21
2023/04/16 00:50:04;;;;;;;3.10;1.38;;;;;;;;;;1043762;28;20115;-23
2023/04/16 00:50:34;;;;;;;1.80;1.08;;;;;;;;;;1043568;28;20027;-20
2023/04/16 00:51:05;;;;;;;3.72;1.55;;;;;;;;;;1043762;28;20116;-20
2023/04/16 00:51:36;;;;;;;2.90;1.15;;;;;;;;;;1047800;28;20087;-23
2023/04/16 00:52:06;;;;;;;5.65;2.95;;;;;;;;;;1048111;28;20056;-22
2023/04/16 00:52:37;;;;;;;5.93;1.67;;;;;;;;;;1043373;28;20039;-22
2023/04/16 00:53:08;;;;;;;2.13;1.38;;;;;;;;;;1043670;28;20079;-23
2023/04/16 00:53:39;;;;;;;2.20;1.33;;;;;;;;;;1043520;28;20024;-21
2023/04/16 00:54:09;;;;;;;1.15;1.05;;;;;;;;;;1044066;28;20024;-20
2023/04/16 00:54:40;;;;;;;8.10;1.33;;;;;;;;;;1047901;28;20426;-22
2023/04/16 00:55:12;;;;;;;1.33;1.00;;;;;;;;;;1048176;28;20105;-21
2023/04/16 00:55:43;;;;;;;2.17;1.10;;;;;;;;;;1046920;28;20396;-23
2023/04/16 00:56:13;;;;;;;3.40;1.65;;;;;;;;;;1048115;28;20438;-23
2023/04/16 00:56:44;;;;;;;4.50;1.40;;;;;;;;;;1047761;28;20013;-22
2023/04/16 00:57:15;;;;;;;5.80;1.80;;;;;;;;;;1047909;28;20016;-20
2023/04/16 00:57:45;;;;;;;4.40;1.88;;;;;;;;;;1047867;28;20063;-23
2023/04/16 00:58:16;;;;;;;1.38;1.15;;;;;;;;;;1048134;28;20111;-23
2023/04/16 00:58:46;;;;;;;8.15;1.45;;;;;;;;;;1048005;28;20024;-23
2023/04/16 00:59:17;;;;;;;6.90;2.03;;;;;;;;;;1048032;28;20613;-22
2023/04/16 00:59:47;;;;;;;4.10;1.10;;;;;;;;;;1047953;28;20059;-23
2023/04/16 01:00:19;;;;;;;8.00;2.17;;;;;;;;;;1047933;28;20027;-22
2023/04/16 01:00:50;;;;;;;3.65;1.67;;;;;;;;;;1047970;28;20030;-23
2023/04/16 01:01:20;;;;;;;8.13;0.88;;;;;;;;;;1047849;28;20023;-21
2023/04/16 01:01:50;;;;;;;4.45;1.23;;;;;;;;;;1048057;28;20129;-21
2023/04/16 01:02:21;;;;;;;2.53;1.25;;;;;;;;;;1048069;28;20020;-23
2023/04/16 01:02:53;;;;;;;2.47;1.30;;;;;;;;;;1047986;28;20024;-23
2023/04/16 01:03:25;;;;;;;12.60;1.92;;;;;;;;;;1047974;28;20467;-23
2023/04/16 01:03:55;;;;;;;5.03;2.22;;;;;;;;;;1048067;28;20024;-23
2023/04/16 01:04:26;;;;;;;5.07;2.58;;;;;;;;;;1047927;28;20020;-22
2023/04/16 01:04:56;;;;;;;4.10;1.60;;;;;;;;;;1047995;28;20025;-23
2023/04/16 01:05:27;;;;;;;6.57;2.63;;;;;;;;;;1048014;28;20520;-21
2023/04/16 01:05:57;;;;;;;2.28;1.08;;;;;;;;;;1047856;28;20032;-23
2023/04/16 01:06:28;;;;;;;14.15;1.60;;;;;;;;;;1047996;28;20017;-22
2023/04/16 01:06:58;;;;;;;4.68;1.67;;;;;;;;;;1048125;28;20036;-23
2023/04/16 01:07:29;;;;;;;1.08;1.00;;;;;;;;;;1047967;28;20087;-23
2023/04/16 01:08:00;;;;;;;2.60;0.65;;;;;;;;;;1043504;28;20480;-20
2023/04/16 01:08:30;;;;;;;3.35;0.90;;;;;;;;;;1043281;28;20445;-23
2023/04/16 01:09:01;;;;;;;1.55;1.30;;;;;;;;;;1043288;28;20424;-21
2023/04/16 01:09:31;;;;;;;2.42;1.25;;;;;;;;;;1043579;28;20027;-23
2023/04/16 01:10:02;;;;;;;2.25;1.30;;;;;;;;;;1048161;28;20115;-22
2023/04/16 01:10:32;;;;;;;1.25;0.90;;;;;;;;;;1047811;28;20028;-23
2023/04/16 01:11:03;;;;;;;2.35;1.45;;;;;;;;;;1047877;28;20016;-19
2023/04/16 01:11:33;;;;;;;3.40;0.55;;;;;;;;;;1047961;28;20025;-22
2023/04/16 01:12:04;;;;;;;3.85;1.60;;;;;;;;;;1047672;28;20097;-21
2023/04/16 01:12:34;;;;;;;8.30;1.75;;;;;;;;;;1047748;28;20023;-22
2023/04/16 01:13:05;;;;;;;1.92;1.33;;;;;;;;;;1048091;28;20031;-22
2023/04/16 01:13:38;;;;;;;2.33;1.00;;;;;;;;;;1047817;28;20024;-21
2023/04/16 01:14:08;;;;;;;5.07;2.10;;;;;;;;;;1048124;28;20024;-22
2023/04/16 01:14:39;;;;;;;2.65;1.40;;;;;;;;;;1047829;28;20391;-22
2023/04/16 01:15:10;;;;;;;3.70;1.42;;;;;;;;;;1048122;28;20118;-20
2023/04/16 01:15:40;;;;;;;2.15;1.50;;;;;;;;;;1048257;28;20043;-22
2023/04/16 01:16:11;;;;;;;2.15;1.20;;;;;;;;;;1048572;28;20032;-23
2023/04/16 01:16:42;;;;;;;0.60;0.47;;;;;;;;;;1047953;28;20024;-23
2023/04/16 01:17:12;;;;;;;1.77;1.08;;;;;;;;;;1047960;28;20119;-23
2023/04/16 01:17:44;;;;;;;3.55;1.35;;;;;;;;;;1047910;28;20399;-20
2023/04/16 01:18:15;;;;;;;3.15;1.48;;;;;;;;;;1048044;28;20060;-21
2023/04/16 01:18:45;;;;;;;3.75;2.28;;;;;;;;;;1046808;28;20024;-21
2023/04/16 01:19:16;;;;;;;2.40;1.13;;;;;;;;;;1047991;28;21216;-19
2023/04/16 01:19:46;;;;;;;3.45;1.08;;;;;;;;;;1047959;28;20396;-22
2023/04/16 01:20:17;;;;;;;2.67;1.58;;;;;;;;;;1047011;28;20008;-23
2023/04/16 01:20:48;;;;;;;5.38;2.08;;;;;;;;;;1047890;28;20028;-21
2023/04/16 01:21:18;;;;;;;3.90;2.55;;;;;;;;;;1047959;28;20468;-19
2023/04/16 01:21:49;;;;;;;1.63;0.98;;;;;;;;;;1047851;28;20107;-21
2023/04/16 01:22:19;;;;;;;1.50;0.88;;;;;;;;;;1047916;28;20028;-22
2023/04/16 01:22:50;;;;;;;4.28;2.25;;;;;;;;;;1048032;28;20069;-22
2023/04/16 01:23:21;;;;;;;1.50;1.20;;;;;;;;;;1049056;28;20024;-19
2023/04/16 01:23:51;;;;;;;2.42;1.05;;;;;;;;;;1047886;28;20024;-22
2023/04/16 01:24:22;;;;;;;5.15;2.25;;;;;;;;;;1047991;28;20024;-20
2023/04/16 01:24:52;;;;;;;7.13;2.38;;;;;;;;;;1048029;28;20027;-22
2023/04/16 01:25:23;;;;;;;1.58;1.20;;;;;;;;;;1047920;28;20555;-18
2023/04/16 01:25:53;;;;;;;1.30;0.90;;;;;;;;;;1047839;28;20373;-20
2023/04/16 01:26:24;;;;;;;2.20;1.25;;;;;;;;;;1046942;28;20491;-20
2023/04/16 01:26:56;;;;;;;2.63;1.58;;;;;;;;;;1047667;28;20476;-19
2023/04/16 01:27:26;;;;;;;4.15;1.92;;;;;;;;;;1047556;28;20484;-19
2023/04/16 01:27:58;;;;;;;3.38;2.15;;;;;;;;;;1047949;28;20020;-20
2023/04/16 01:28:28;;;;;;;2.67;1.65;;;;;;;;;;1047902;28;20129;-17
2023/04/16 01:28:59;;;;;;;4.32;1.17;;;;;;;;;;1048045;28;20519;-23
2023/04/16 01:29:29;;;;;;;7.78;1.42;;;;;;;;;;1047858;28;20025;-20
2023/04/16 01:30:00;;;;;;;0.80;0.77;;;;;;;;;;1047990;28;20410;-23
2023/04/16 01:30:30;;;;;;;2.13;1.27;;;;;;;;;;1048040;28;20116;-21
2023/04/16 01:31:01;;;;;;;3.08;2.22;;;;;;;;;;1047911;28;20024;-21
2023/04/16 01:31:31;;;;;;;1.60;0.80;;;;;;;;;;1047919;28;20079;-24
2023/04/16 01:32:02;;;;;;;2.88;1.33;;;;;;;;;;1046947;28;20016;-21
2023/04/16 01:32:32;;;;;;;1.33;1.13;;;;;;;;;;1047767;28;20024;-23
2023/04/16 01:33:02;;;;;;;2.97;1.20;;;;;;;;;;1048015;28;20199;-22
2023/04/16 01:33:33;;;;;;;2.03;1.33;;;;;;;;;;1047896;28;20161;-18
2023/04/16 01:34:03;;;;;;;3.42;0.80;;;;;;;;;;1048049;28;20016;-23
2023/04/16 01:34:34;;;;;;;1.42;1.33;;;;;;;;;;1047900;28;20028;-20
2023/04/16 01:35:04;;;;;;;5.90;1.92;;;;;;;;;;1047930;28;20031;-20
2023/04/16 01:35:35;;;;;;;3.03;1.20;;;;;;;;;;1047870;28;20387;-23
2023/04/16 01:36:05;;;;;;;2.28;1.38;;;;;;;;;;1048027;28;20016;-18
2023/04/16 01:36:36;;;;;;;2.42;1.40;;;;;;;;;;1047781;28;20024;-22
2023/04/16 01:37:06;;;;;;;6.05;1.52;;;;;;;;;;1048020;28;20020;-22
2023/04/16 01:37:37;;;;;;;5.07;2.20;;;;;;;;;;1047865;28;20070;-22
2023/04/16 01:38:08;;;;;;;3.25;1.55;;;;;;;;;;1043524;28;20032;-23
2023/04/16 01:38:38;;;;;;;3.95;1.52;;;;;;;;;;1043391;28;20017;-23
2023/04/16 01:39:12;;;;;;;2.67;1.58;;;;;;;;;;1043666;28;20021;-20
2023/04/16 01:39:43;;;;;;;6.00;1.58;;;;;;;;;;1044141;28;20029;-23
2023/04/16 01:40:13;;;;;;;3.55;2.40;;;;;;;;;;1047974;28;20094;-23
2023/04/16 01:40:44;;;;;;;3.60;1.95;;;;;;;;;;1047838;28;20025;-22
2023/04/16 01:41:14;;;;;;;6.60;2.60;;;;;;;;;;1047994;28;20025;-22
2023/04/16 01:41:45;;;;;;;5.07;2.70;;;;;;;;;;1047413;28;20013;-23
2023/04/16 01:42:15;;;;;;;4.93;1.85;;;;;;;;;;1047855;28;20020;-22
2023/04/16 01:42:46;;;;;;;14.27;2.25;;;;;;;;;;1047928;28;20020;-23
2023/04/16 01:43:16;;;;;;;2.95;2.08;;;;;;;;;;1047900;28;20029;-23
2023/04/16 01:43:47;;;;;;;8.30;2.08;;;;;;;;;;1047902;28;20016;-23
2023/04/16 01:44:17;;;;;;;5.80;2.63;;;;;;;;;;1047953;28;20120;-22
2023/04/16 01:44:48;;;;;;;5.05;2.33;;;;;;;;;;1047783;28;20024;-21
2023/04/16 01:45:18;;;;;;;25.73;3.63;;;;;;;;;;1048009;28;20027;-23
2023/04/16 01:45:48;;;;;;;4.40;2.63;;;;;;;;;;1047718;28;20020;-21
2023/04/16 01:46:30;;;;;;;2.50;2.30;;;;;;;;;;1047949;28;20492;-22
2023/04/16 01:47:00;;;;;;;4.82;1.70;;;;;;;;;;1047268;28;20054;-22
2023/04/16 01:47:31;;;;;;;5.15;2.78;;;;;;;;;;1047906;28;20058;-23
2023/04/16 01:48:02;;;;;;;3.63;1.83;;;;;;;;;;1047969;28;20032;-20
2023/04/16 01:48:32;;;;;;;4.30;2.83;;;;;;;;;;1047901;28;20112;-21
2023/04/16 01:49:03;;;;;;;2.22;1.63;;;;;;;;;;1048014;28;20021;-22
2023/04/16 01:49:35;;;;;;;6.25;2.65;;;;;;;;;;1047858;28;20063;-22
2023/04/16 01:50:06;;;;;;;4.55;2.15;;;;;;;;;;1047944;28;20042;-23
2023/04/16 01:50:36;;;;;;;10.35;2.50;;;;;;;;;;1047870;28;20035;-23
2023/04/16 01:51:07;;;;;;;3.00;1.42;;;;;;;;;;1047808;28;20028;-23
2023/04/16 01:51:37;;;;;;;8.48;1.92;;;;;;;;;;1047752;28;20032;-22
2023/04/16 01:52:08;;;;;;;3.25;2.55;;;;;;;;;;1048019;28;20031;-20
2023/04/16 01:52:38;;;;;;;6.03;2.80;;;;;;;;;;1047740;28;20020;-21
2023/04/16 01:53:08;;;;;;;7.43;2.08;;;;;;;;;;1047941;28;20032;-23
2023/04/16 01:53:39;;;;;;;4.53;2.72;;;;;;;;;;1047808;28;20074;-23
2023/04/16 01:54:10;;;;;;;3.10;1.63;;;;;;;;;;1048066;28;20031;-23
2023/04/16 01:54:40;;;;;;;1.67;1.15;;;;;;;;;;1047701;28;20525;-22
2023/04/16 01:55:11;;;;;;;16.40;3.38;;;;;;;;;;1047961;28;20107;-22
2023/04/16 01:55:41;;;;;;;7.60;2.38;;;;;;;;;;1047813;28;20028;-22
2023/04/16 01:56:12;;;;;;;4.32;3.00;;;;;;;;;;1047971;28;20432;-23
2023/04/16 01:56:42;;;;;;;3.47;2.47;;;;;;;;;;1047849;28;20509;-20
2023/04/16 01:57:12;;;;;;;9.77;3.25;;;;;;;;;;1047642;28;20044;-23
2023/04/16 01:57:43;;;;;;;3.15;1.85;;;;;;;;;;1047725;28;20021;-20
2023/04/16 01:58:14;;;;;;;1.48;1.23;;;;;;;;;;1048132;28;20055;-22
2023/04/16 01:58:46;;;;;;;5.20;2.95;;;;;;;;;;1047759;28;20024;-20
2023/04/16 01:59:16;;;;;;;4.05;2.65;;;;;;;;;;1047875;28;20090;-22
2023/04/16 01:59:46;;;;;;;5.90;2.38;;;;;;;;;;1047799;28;20464;-21
2023/04/16 02:00:17;;;;;;;6.78;1.60;;;;;;;;;;1048082;28;20525;-21
2023/04/16 02:00:47;;;;;;;14.23;2.75;;;;;;;;;;1047879;28;20392;-18
2023/04/16 02:01:18;;;;;;;4.28;1.55;;;;;;;;;;1047894;28;20020;-23
2023/04/16 02:01:48;;;;;;;10.38;1.60;;;;;;;;;;1046744;28;20021;-22
2023/04/16 02:02:19;;;;;;;0.60;0.60;;;;;;;;;;1048042;28;20024;-22
2023/04/16 02:02:49;;;;;;;5.03;1.38;;;;;;;;;;1048009;28;20020;-23
2023/04/16 02:03:23;;;;;;;6.47;1.38;;;;;;;;;;1046750;28;20107;-23
2023/04/16 02:03:53;;;;;;;1.52;1.42;;;;;;;;;;1047870;28;20098;-23
2023/04/16 02:04:23;;;;;;;20.67;2.83;;;;;;;;;;1047877;28;20414;-20
2023/04/16 02:04:55;;;;;;;4.95;2.85;;;;;;;;;;1047944;28;20106;-22
2023/04/16 02:05:26;;;;;;;1.33;1.05;;;;;;;;;;1046793;28;20021;-21
2023/04/16 02:05:56;;;;;;;5.72;2.20;;;;;;;;;;1047639;28;20021;-20
2023/04/16 02:06:26;;;;;;;6.05;2.53;;;;;;;;;;1047983;28;20009;-23
2023/04/16 02:06:57;;;;;;;5.22;2.97;;;;;;;;;;1046876;28;20088;-20
2023/04/16 02:07:27;;;;;;;3.97;2.33;;;;;;;;;;1047761;28;20027;-23
2023/04/16 02:07:58;;;;;;;8.20;2.28;;;;;;;;;;1047993;28;20031;-22
2023/04/16 02:08:28;;;;;;;4.60;1.77;;;;;;;;;;1047948;28;20384;-21
2023/04/16 02:08:59;;;;;;;3.92;2.03;;;;;;;;;;1047810;28;20024;-17
2023/04/16 02:09:29;;;;;;;10.70;3.28;;;;;;;;;;1047867;28;20395;-20
2023/04/16 02:10:00;;;;;;;16.42;1.88;;;;;;;;;;1047937;28;20024;-21
2023/04/16 02:10:30;;;;;;;22.27;5.70;;;;;;;;;;1047918;28;20036;-20
2023/04/16 02:11:01;;;;;;;3.60;1.88;;;;;;;;;;1047871;28;20150;-21
2023/04/16 02:11:31;;;;;;;4.75;1.45;;;;;;;;;;1047754;28;20048;-18
2023/04/16 02:12:02;;;;;;;5.22;2.25;;;;;;;;;;1047583;28;20020;-22
2023/04/16 02:12:33;;;;;;;4.95;2.30;;;;;;;;;;1047832;28;20024;-22
2023/04/16 02:13:03;;;;;;;11.40;3.08;;;;;;;;;;1047856;28;20024;-20
2023/04/16 02:13:34;;;;;;;7.93;3.00;;;;;;;;;;1047706;28;20017;-23
2023/04/16 02:14:04;;;;;;;3.83;2.53;;;;;;;;;;1047984;28;20062;-23
2023/04/16 02:14:35;;;;;;;8.77;2.85;;;;;;;;;;1046775;28;20467;-23
2023/04/16 02:15:06;;;;;;;4.57;2.55;;;;;;;;;;1047807;28;20559;-21
2023/04/16 02:15:36;;;;;;;12.60;3.20;;;;;;;;;;1047829;28;20384;-23
2023/04/16 02:16:07;;;;;;;4.18;1.75;;;;;;;;;;1048890;28;20059;-21
2023/04/16 02:16:38;;;;;;;4.80;2.63;;;;;;;;;;1047642;28;20112;-23
2023/04/16 02:17:08;;;;;;;6.03;2.17;;;;;;;;;;1047947;28;20397;-23
2023/04/16 02:17:39;;;;;;;8.65;2.97;;;;;;;;;;1047771;28;20016;-22
2023/04/16 02:18:09;;;;;;;3.00;1.77;;;;;;;;;;1048084;28;20035;-22
2023/04/16 02:18:40;;;;;;;13.48;3.10;;;;;;;;;;1047775;28;20048;-20
2023/04/16 02:19:10;;;;;;;5.32;2.47;;;;;;;;;;1046865;28;20036;-21
2023/04/16 02:19:41;;;;;;;7.65;1.65;;;;;;;;;;1047775;28;20021;-22
2023/04/16 02:20:11;;;;;;;5.30;3.25;;;;;;;;;;1048057;28;20425;-20
2023/04/16 02:20:43;;;;;;;10.45;4.53;;;;;;;;;;1047718;28;20024;-22
2023/04/16 02:21:13;;;;;;;3.10;2.33;;;;;;;;;;1048618;28;20019;-23
2023/04/16 02:21:44;;;;;;;20.45;4.28;;;;;;;;;;1048521;28;20091;-21
2023/04/16 02:22:14;;;;;;;11.18;4.50;;;;;;;;;;1047753;28;20028;-21
2023/04/16 02:22:45;;;;;;;3.45;2.35;;;;;;;;;;1048379;28;20111;-22
2023/04/16 02:23:15;;;;;;;5.70;2.90;;;;;;;;;;1049829;28;20027;-20
2023/04/16 02:23:50;;;;;;;7.60;2.42;;;;;;;;;;1047421;28;20047;-23
2023/04/16 02:24:20;;;;;;;18.85;3.70;;;;;;;;;;1047767;28;20055;-23
2023/04/16 02:24:51;;;;;;;6.68;3.92;;;;;;;;;;1048512;28;20024;-21
2023/04/16 02:25:23;;;;;;;4.55;2.40;;;;;;;;;;1048548;28;20483;-23
2023/04/16 02:25:53;;;;;;;6.55;2.42;;;;;;;;;;1048448;28;20032;-21
2023/04/16 02:26:25;;;;;;;21.88;6.00;;;;;;;;;;1048536;28;20028;-23
2023/04/16 02:26:55;;;;;;;4.22;3.00;;;;;;;;;;1048199;28;20036;-23
2023/04/16 02:27:26;;;;;;;12.38;2.95;;;;;;;;;;1048306;28;20024;-22
2023/04/16 02:27:56;;;;;;;6.47;2.55;;;;;;;;;;1048572;28;20047;-21
2023/04/16 02:28:27;;;;;;;19.60;2.90;;;;;;;;;;1048654;28;20020;-23
2023/04/16 02:28:57;;;;;;;15.27;2.60;;;;;;;;;;1048552;28;20028;-22
2023/04/16 02:29:28;;;;;;;4.15;2.08;;;;;;;;;;1048511;28;20019;-21
2023/04/16 02:29:58;;;;;;;3.75;1.92;;;;;;;;;;1048578;28;20060;-21
2023/04/16 02:30:29;;;;;;;4.32;1.83;;;;;;;;;;1048579;28;20434;-20
2023/04/16 02:31:00;;;;;;;11.18;2.53;;;;;;;;;;1048374;28;20056;-19
2023/04/16 02:31:30;;;;;;;2.22;1.42;;;;;;;;;;1048506;28;20475;-22
2023/04/16 02:32:01;;;;;;;2.70;1.50;;;;;;;;;;1048571;28;20230;-23
2023/04/16 02:32:31;;;;;;;3.15;2.13;;;;;;;;;;1048508;28;20061;-22
2023/04/16 02:33:04;;;;;;;4.60;2.42;;;;;;;;;;1048549;28;20021;-23
2023/04/16 02:33:35;;;;;;;3.03;1.90;;;;;;;;;;1047379;28;20021;-23
2023/04/16 02:34:05;;;;;;;6.18;2.92;;;;;;;;;;1048697;28;20460;-23
2023/04/16 02:34:38;;;;;;;10.65;2.92;;;;;;;;;;1048284;28;20016;-22
2023/04/16 02:35:09;;;;;;;1.90;1.35;;;;;;;;;;1048559;28;20055;-23
2023/04/16 02:35:39;;;;;;;7.07;2.08;;;;;;;;;;1048448;28;20028;-22
2023/04/16 02:36:11;;;;;;;3.42;1.73;;;;;;;;;;1048699;28;20027;-18
2023/04/16 02:36:42;;;;;;;1.30;0.80;;;;;;;;;;1048428;28;20391;-22
2023/04/16 02:37:14;;;;;;;3.72;1.85;;;;;;;;;;1048640;28;20020;-23
2023/04/16 02:37:45;;;;;;;3.72;2.50;;;;;;;;;;1047371;28;20028;-22
2023/04/16 02:38:15;;;;;;;7.50;1.60;;;;;;;;;;1048601;28;20155;-22
2023/04/16 02:38:45;;;;;;;4.18;1.35;;;;;;;;;;1048524;28;20098;-21
2023/04/16 02:39:16;;;;;;;3.20;1.15;;;;;;;;;;1048544;28;20055;-23
2023/04/16 02:39:48;;;;;;;6.15;2.33;;;;;;;;;;1048407;28;20029;-23
2023/04/16 02:40:19;;;;;;;3.78;1.38;;;;;;;;;;1048680;28;20027;-23
2023/04/16 02:40:49;;;;;;;2.92;2.15;;;;;;;;;;1048391;28;20098;-23
2023/04/16 02:41:20;;;;;;;2.92;1.27;;;;;;;;;;1048446;28;20094;-20
2023/04/16 02:41:51;;;;;;;1.95;1.13;;;;;;;;;;1048049;28;20369;-21
2023/04/16 02:42:21;;;;;;;8.82;2.00;;;;;;;;;;1047410;28;20097;-23
2023/04/16 02:42:52;;;;;;;1.38;1.10;;;;;;;;;;1048413;28;20021;-22
2023/04/16 02:43:23;;;;;;;3.47;2.03;;;;;;;;;;1048400;28;20036;-21
2023/04/16 02:43:53;;;;;;;13.73;3.05;;;;;;;;;;1047266;28;20020;-20
2023/04/16 02:44:24;;;;;;;0.88;0.88;;;;;;;;;;1048523;28;20427;-20
2023/04/16 02:44:54;;;;;;;3.50;3.03;;;;;;;;;;1048486;28;20028;-23
2023/04/16 02:45:25;;;;;;;12.05;1.25;;;;;;;;;;1047341;28;20476;-22
2023/04/16 02:45:58;;;;;;;8.00;2.47;;;;;;;;;;1048231;28;20024;-23
2023/04/16 02:46:28;;;;;;;2.92;1.88;;;;;;;;;;1048453;28;20077;-20
2023/04/16 02:46:59;;;;;;;2.67;1.13;;;;;;;;;;1048583;28;20028;-23
2023/04/16 02:47:29;;;;;;;3.25;1.75;;;;;;;;;;1048379;28;20111;-21
2023/04/16 02:48:00;;;;;;;1.35;1.13;;;;;;;;;;1048540;28;20028;-20
2023/04/16 02:48:30;;;;;;;2.70;1.10;;;;;;;;;;1048569;28;20024;-23
2023/04/16 02:49:00;;;;;;;4.05;2.10;;;;;;;;;;1048537;28;20499;-24
2023/04/16 02:49:31;;;;;;;2.83;1.35;;;;;;;;;;1048382;28;20021;-22
2023/04/16 02:50:02;;;;;;;24.42;2.28;;;;;;;;;;1048389;28;20020;-22
2023/04/16 02:50:33;;;;;;;3.13;2.25;;;;;;;;;;1048427;28;20028;-22
2023/04/16 02:51:03;;;;;;;3.47;1.60;;;;;;;;;;1048364;28;20392;-23
2023/04/16 02:51:34;;;;;;;1.23;0.98;;;;;;;;;;1048488;28;20130;-23
2023/04/16 02:52:04;;;;;;;3.35;1.95;;;;;;;;;;1048576;28;20078;-20
2023/04/16 02:52:35;;;;;;;4.15;2.65;;;;;;;;;;1048379;28;20576;-23
2023/04/16 02:53:06;;;;;;;5.32;1.40;;;;;;;;;;1048529;28;20020;-23
2023/04/16 02:53:37;;;;;;;9.93;3.17;;;;;;;;;;1048284;28;20028;-23
2023/04/16 02:54:07;;;;;;;6.95;3.25;;;;;;;;;;1048622;28;20024;-20
2023/04/16 02:54:37;;;;;;;5.70;1.70;;;;;;;;;;1048450;28;20032;-23
2023/04/16 02:55:09;;;;;;;7.55;2.95;;;;;;;;;;1048518;28;20476;-23
2023/04/16 02:55:39;;;;;;;4.38;1.52;;;;;;;;;;1048342;28;20031;-21
2023/04/16 02:56:10;;;;;;;18.33;3.60;;;;;;;;;;1048674;28;20412;-21
2023/04/16 02:56:40;;;;;;;2.75;1.73;;;;;;;;;;1048346;28;20119;-22
2023/04/16 02:57:11;;;;;;;14.25;3.33;;;;;;;;;;1048023;28;20511;-22
2023/04/16 02:57:41;;;;;;;5.53;2.92;;;;;;;;;;1048270;28;20391;-22
2023/04/16 02:58:12;;;;;;;3.90;2.05;;;;;;;;;;1048592;28;20024;-22
2023/04/16 02:58:42;;;;;;;7.40;2.65;;;;;;;;;;1048304;28;20521;-22
2023/04/16 02:59:13;;;;;;;11.00;4.72;;;;;;;;;;1048516;28;20797;-22
2023/04/16 02:59:43;;;;;;;12.98;2.70;;;;;;;;;;1047312;28;20024;-21
2023/04/16 03:00:14;;;;;;;7.85;2.67;;;;;;;;;;1048513;28;20039;-23
2023/04/16 03:00:44;;;;;;;10.95;4.68;;;;;;;;;;1048352;28;20115;-22
2023/04/16 03:01:15;;;;;;;7.38;2.40;;;;;;;;;;1048316;28;20020;-22
2023/04/16 03:01:45;;;;;;;15.52;2.15;;;;;;;;;;1048268;28;20020;-20
2023/04/16 03:02:16;;;;;;;2.42;1.33;;;;;;;;;;1048545;28;20028;-22
2023/04/16 03:02:46;;;;;;;3.38;2.08;;;;;;;;;;1048363;28;20024;-20
2023/04/16 03:03:17;;;;;;;2.13;0.98;;;;;;;;;;1048454;28;20051;-23
2023/04/16 03:03:47;;;;;;;6.20;2.03;;;;;;;;;;1048415;28;20016;-21